createdAt,value
2024-04-22T00:01:10.137Z,95.20
2024-04-22T00:03:36.979Z,95.53
2024-04-22T00:06:03.778Z,95.04
2024-04-22T00:08:30.530Z,95.34
2024-04-22T00:11:05.227Z,96.39
2024-04-22T00:13:33.021Z,95.98
2024-04-22T00:15:59.771Z,96.09
2024-04-22T00:18:26.446Z,96.06
2024-04-22T00:20:53.076Z,96.77
2024-04-22T00:23:20.916Z,96.78
2024-04-22T00:25:48.079Z,96.03
2024-04-22T00:28:14.733Z,95.44
2024-04-22T00:30:41.355Z,95.64
2024-04-22T00:33:09.757Z,95.48
2024-04-22T00:35:36.577Z,96.04
2024-04-22T00:38:03.499Z,96.17
2024-04-22T00:40:30.179Z,96.51
2024-04-22T00:42:56.853Z,96.75
2024-04-22T00:45:23.415Z,96.51
2024-04-22T00:47:50.018Z,96.33
2024-04-22T00:50:16.819Z,96.42
2024-04-22T00:52:43.545Z,95.95
2024-04-22T00:55:10.294Z,96.13
2024-04-22T00:57:41.179Z,95.73
2024-04-22T01:00:08.353Z,95.63
2024-04-22T01:02:35.061Z,95.62
2024-04-22T01:05:02.333Z,95.21
2024-04-22T01:07:28.974Z,95.11
2024-04-22T01:09:55.682Z,95.21
2024-04-22T01:12:22.345Z,94.64
2024-04-22T01:14:48.921Z,94.74
2024-04-22T01:17:15.523Z,94.77
2024-04-22T01:19:42.110Z,94.45
2024-04-22T01:22:09.223Z,95.00
2024-04-22T01:24:35.901Z,94.62
2024-04-22T01:27:05.131Z,95.33
2024-04-22T01:29:31.887Z,95.03
2024-04-22T01:31:58.463Z,95.45
2024-04-22T01:34:25.096Z,95.29
2024-04-22T01:36:52.041Z,95.27
2024-04-22T01:39:18.634Z,94.69
2024-04-22T01:41:45.177Z,95.10
2024-04-22T01:44:11.773Z,95.35
2024-04-22T01:46:38.425Z,95.38
2024-04-22T01:49:05.036Z,96.20
2024-04-22T01:51:31.630Z,96.91
2024-04-22T01:53:58.234Z,96.78
2024-04-22T01:56:24.967Z,96.76
2024-04-22T01:58:53.169Z,98.54
2024-04-22T02:01:20.000Z,98.36
2024-04-22T02:03:46.771Z,99.09
2024-04-22T02:06:14.005Z,99.11
2024-04-22T02:08:40.564Z,99.09
2024-04-22T02:11:07.287Z,99.46
2024-04-22T02:13:34.075Z,99.32
2024-04-22T02:16:00.682Z,98.72
2024-04-22T02:18:28.473Z,98.27
2024-04-22T02:20:55.071Z,98.38
2024-04-22T02:23:21.642Z,99.11
2024-04-22T02:25:48.384Z,99.49
2024-04-22T02:28:15.293Z,99.27
2024-04-22T02:30:41.930Z,100.00
2024-04-22T02:33:09.728Z,99.88
2024-04-22T02:35:36.613Z,99.69
2024-04-22T02:38:03.491Z,99.48
2024-04-22T02:40:30.149Z,99.41
2024-04-22T02:42:56.746Z,99.84
2024-04-22T02:45:23.678Z,99.33
2024-04-22T02:47:50.381Z,99.40
2024-04-22T02:50:17.402Z,100.00
2024-04-22T02:52:44.019Z,100.00
2024-04-22T02:55:11.058Z,100.00
2024-04-22T02:57:37.655Z,100.00
2024-04-22T03:00:05.958Z,100.00
2024-04-22T03:02:32.642Z,100.00
2024-04-22T03:04:59.274Z,99.92
2024-04-22T03:07:28.156Z,99.95
2024-04-22T03:09:54.754Z,100.00
2024-04-22T03:12:24.189Z,100.00
2024-04-22T03:14:50.807Z,100.00
2024-04-22T03:17:17.396Z,100.00
2024-04-22T03:19:44.051Z,100.00
2024-04-22T03:22:10.677Z,100.00
2024-04-22T03:24:37.223Z,100.00
2024-04-22T03:27:04.490Z,100.00
2024-04-22T03:29:31.059Z,100.00
2024-04-22T03:31:57.748Z,100.00
2024-04-22T03:34:24.469Z,100.00
2024-04-22T03:36:51.273Z,100.00
2024-04-22T03:39:17.858Z,100.00
2024-04-22T03:41:44.435Z,100.00
2024-04-22T03:44:11.099Z,100.00
2024-04-22T03:46:56.267Z,100.00
2024-04-22T03:49:41.633Z,100.00
2024-04-22T03:52:08.244Z,100.00
2024-04-22T03:54:34.812Z,100.00
2024-04-22T03:57:01.382Z,100.00
2024-04-22T03:59:28.366Z,100.00
2024-04-22T04:01:54.957Z,100.00
2024-04-22T04:04:21.652Z,100.00
2024-04-22T04:06:48.268Z,100.00
2024-04-22T04:09:15.060Z,100.00
2024-04-22T04:11:41.777Z,100.00
2024-04-22T04:14:08.647Z,100.00
2024-04-22T04:16:35.556Z,100.00
2024-04-22T04:19:02.227Z,100.00
2024-04-22T04:21:28.781Z,100.00
2024-04-22T04:23:55.347Z,100.00
2024-04-22T04:26:21.905Z,100.00
2024-04-22T04:28:49.264Z,100.00
2024-04-22T04:31:16.021Z,100.00
2024-04-22T04:33:42.644Z,100.00
2024-04-22T04:36:09.920Z,100.00
2024-04-22T04:38:37.452Z,100.00
2024-04-22T04:41:04.598Z,100.00
2024-04-22T04:43:31.874Z,100.00
2024-04-22T04:45:59.148Z,100.00
2024-04-22T04:48:26.337Z,100.00
2024-04-22T04:50:53.115Z,100.00
2024-04-22T04:53:21.099Z,100.00
2024-04-22T04:55:48.495Z,100.00
2024-04-22T04:58:15.611Z,100.00
2024-04-22T05:00:42.650Z,100.00
2024-04-22T05:03:09.605Z,100.00
2024-04-22T05:05:36.321Z,100.00
2024-04-22T05:08:04.926Z,100.00
2024-04-22T05:10:31.846Z,100.00
2024-04-22T05:12:58.538Z,100.00
2024-04-22T05:15:25.090Z,100.00
2024-04-22T05:17:51.913Z,100.00
2024-04-22T05:20:18.576Z,100.00
2024-04-22T05:22:45.259Z,100.00
2024-04-22T05:25:11.899Z,100.00
2024-04-22T05:27:38.470Z,100.00
2024-04-22T05:30:05.438Z,100.00
2024-04-22T05:32:33.488Z,100.00
2024-04-22T05:35:18.953Z,100.00
2024-04-22T05:37:45.621Z,100.00
2024-04-22T05:40:12.314Z,99.61
2024-04-22T05:42:39.327Z,97.47
2024-04-22T05:45:06.187Z,97.03
2024-04-22T05:47:32.879Z,96.62
2024-04-22T05:50:01.124Z,96.05
2024-04-22T05:52:28.466Z,95.14
2024-04-22T05:54:58.259Z,93.54
2024-04-22T05:57:24.978Z,92.37
2024-04-22T05:59:52.005Z,93.13
2024-04-22T06:02:18.615Z,94.18
2024-04-22T06:04:45.259Z,92.93
2024-04-22T06:07:11.949Z,90.52
2024-04-22T06:09:39.139Z,89.21
2024-04-22T06:12:15.315Z,86.98
2024-04-22T06:14:46.171Z,86.22
2024-04-22T06:17:12.938Z,85.41
2024-04-22T06:19:40.667Z,83.11
2024-04-22T06:22:07.401Z,83.86
2024-04-22T06:24:34.021Z,82.34
2024-04-22T06:27:00.575Z,80.62
2024-04-22T06:29:27.251Z,79.66
2024-04-22T06:31:54.028Z,78.70
2024-04-22T06:34:20.758Z,76.88
2024-04-22T06:36:47.542Z,79.11
2024-04-22T06:39:14.216Z,76.85
2024-04-22T06:41:40.893Z,74.97
2024-04-22T06:44:07.472Z,75.09
2024-04-22T06:46:34.237Z,73.22
2024-04-22T06:49:00.850Z,73.30
2024-04-22T06:51:27.508Z,74.02
2024-04-22T06:53:54.080Z,73.53
2024-04-22T06:56:20.659Z,72.85
2024-04-22T06:58:47.300Z,73.32
2024-04-22T07:01:23.946Z,72.58
2024-04-22T07:03:58.887Z,73.76
2024-04-22T07:06:25.814Z,72.32
2024-04-22T07:08:52.676Z,69.27
2024-04-22T07:11:19.383Z,69.94
2024-04-22T07:13:46.187Z,71.92
2024-04-22T07:16:15.229Z,67.91
2024-04-22T07:18:42.103Z,70.32
2024-04-22T07:21:08.662Z,69.16
2024-04-22T07:23:35.221Z,68.37
2024-04-22T07:26:05.413Z,67.74
2024-04-22T07:28:32.797Z,69.05
2024-04-22T07:31:00.952Z,66.85
2024-04-22T07:33:31.453Z,65.27
2024-04-22T07:36:25.547Z,64.54
2024-04-22T07:38:53.690Z,65.79
2024-04-22T07:41:21.056Z,65.22
2024-04-22T07:43:47.639Z,65.20
2024-04-22T07:46:14.288Z,63.39
2024-04-22T07:48:40.902Z,61.12
2024-04-22T07:51:07.461Z,64.33
2024-04-22T07:53:34.342Z,60.68
2024-04-22T07:56:01.191Z,60.70
2024-04-22T07:58:28.572Z,61.87
2024-04-22T08:00:55.541Z,59.29
2024-04-22T08:03:25.030Z,59.99
2024-04-22T08:05:52.742Z,55.52
2024-04-22T08:08:20.482Z,58.47
2024-04-22T08:10:47.573Z,58.45
2024-04-22T08:13:14.528Z,56.50
2024-04-22T08:15:41.316Z,55.52
2024-04-22T08:18:07.919Z,55.10
2024-04-22T08:20:34.710Z,56.73
2024-04-22T08:23:01.483Z,54.90
2024-04-22T08:25:28.170Z,52.02
2024-04-22T08:27:54.866Z,52.56
2024-04-22T08:30:21.579Z,51.29
2024-04-22T08:32:48.340Z,50.96
2024-04-22T08:35:16.031Z,50.93
2024-04-22T08:37:42.716Z,52.23
2024-04-22T08:40:11.566Z,50.59
2024-04-22T08:42:39.713Z,49.90
2024-04-22T08:45:07.663Z,51.58
2024-04-22T08:47:34.537Z,51.18
2024-04-22T08:50:01.459Z,49.95
2024-04-22T08:52:33.659Z,50.57
2024-04-22T08:55:08.861Z,48.39
2024-04-22T08:57:35.630Z,48.82
2024-04-22T09:00:02.484Z,48.34
2024-04-22T09:02:29.073Z,48.64
2024-04-22T09:04:56.022Z,47.77
2024-04-22T09:07:22.814Z,42.50
2024-04-22T09:10:10.232Z,43.50
2024-04-22T09:12:36.797Z,47.12
2024-04-22T09:15:04.166Z,47.25
2024-04-22T09:17:32.273Z,46.26
2024-04-22T09:19:59.244Z,46.21
2024-04-22T09:22:25.895Z,47.55
2024-04-22T09:24:53.177Z,47.71
2024-04-22T09:27:19.781Z,45.67
2024-04-22T09:29:48.188Z,45.72
2024-04-22T09:32:16.718Z,47.16
2024-04-22T09:34:44.671Z,44.46
2024-04-22T09:37:12.045Z,43.30
2024-04-22T09:39:39.064Z,45.47
2024-04-22T09:42:06.132Z,42.68
2024-04-22T09:44:33.403Z,44.90
2024-04-22T09:47:01.899Z,42.28
2024-04-22T09:49:30.601Z,43.55
2024-04-22T09:51:58.189Z,43.90
2024-04-22T09:54:25.021Z,45.32
2024-04-22T09:56:52.878Z,46.51
2024-04-22T09:59:20.855Z,47.64
2024-04-22T10:01:47.845Z,48.13
2024-04-22T10:04:15.159Z,46.90
2024-04-22T10:06:42.336Z,46.16
2024-04-22T10:09:09.098Z,47.54
2024-04-22T10:11:38.082Z,46.91
2024-04-22T10:14:18.285Z,47.17
2024-04-22T10:16:57.469Z,45.65
2024-04-22T10:19:24.730Z,42.34
2024-04-22T10:21:51.747Z,44.28
2024-04-22T10:24:38.947Z,43.47
2024-04-22T10:27:11.708Z,45.66
2024-04-22T10:29:41.761Z,45.32
2024-04-22T10:32:08.807Z,46.42
2024-04-22T10:34:39.788Z,46.18
2024-04-22T10:37:07.220Z,45.74
2024-04-22T10:39:33.876Z,45.40
2024-04-22T10:42:00.504Z,48.17
2024-04-22T10:44:27.165Z,42.95
2024-04-22T10:46:54.332Z,43.13
2024-04-22T10:49:21.429Z,44.78
2024-04-22T10:51:50.391Z,43.73
2024-04-22T10:54:16.945Z,44.39
2024-04-22T10:56:43.589Z,44.40
2024-04-22T10:59:10.239Z,43.72
2024-04-22T11:01:36.986Z,43.73
2024-04-22T11:04:04.467Z,42.93
2024-04-22T11:06:31.103Z,45.02
2024-04-22T11:08:59.078Z,44.71
2024-04-22T11:11:25.819Z,44.78
2024-04-22T11:13:52.584Z,45.25
2024-04-22T11:16:20.975Z,45.00
2024-04-22T11:18:48.326Z,43.19
2024-04-22T11:21:15.621Z,42.66
2024-04-22T11:23:42.248Z,47.21
2024-04-22T11:26:10.842Z,48.66
2024-04-22T11:28:37.552Z,49.38
2024-04-22T11:31:04.297Z,48.93
2024-04-22T11:33:30.899Z,49.66
2024-04-22T11:35:59.231Z,48.30
2024-04-22T11:38:28.984Z,49.04
2024-04-22T11:40:55.873Z,47.54
2024-04-22T11:43:23.433Z,46.32
2024-04-22T11:45:52.910Z,44.75
2024-04-22T11:48:20.020Z,46.10
2024-04-22T11:50:46.646Z,48.30
2024-04-22T11:53:20.879Z,51.78
2024-04-22T11:55:52.354Z,53.92
2024-04-22T11:58:19.760Z,55.44
2024-04-22T12:00:46.456Z,53.80
2024-04-22T12:03:13.025Z,54.32
2024-04-22T12:05:39.629Z,54.38
2024-04-22T12:08:06.836Z,57.07
2024-04-22T12:10:33.485Z,51.33
2024-04-22T12:13:00.147Z,51.74
2024-04-22T12:15:27.900Z,48.37
2024-04-22T12:17:54.557Z,47.35
2024-04-22T12:20:21.128Z,47.41
2024-04-22T12:22:47.910Z,45.39
2024-04-22T12:25:14.573Z,46.11
2024-04-22T12:27:41.134Z,51.56
2024-04-22T12:30:10.308Z,54.19
2024-04-22T12:32:39.046Z,53.65
2024-04-22T12:35:06.100Z,52.47
2024-04-22T12:37:32.836Z,52.84
2024-04-22T12:39:59.518Z,52.35
2024-04-22T12:42:27.200Z,51.36
2024-04-22T12:44:53.787Z,50.67
2024-04-22T12:47:39.074Z,53.09
2024-04-22T12:50:24.449Z,53.08
2024-04-22T12:52:53.567Z,52.95
2024-04-22T12:55:20.834Z,53.04
2024-04-22T12:57:47.444Z,55.44
2024-04-22T13:00:14.801Z,54.92
2024-04-22T13:02:41.711Z,55.77
2024-04-22T13:05:08.417Z,55.65
2024-04-22T13:07:35.344Z,54.86
2024-04-22T13:10:02.113Z,57.72
2024-04-22T13:12:28.805Z,59.04
2024-04-22T13:14:55.992Z,56.63
2024-04-22T13:17:22.557Z,54.00
2024-04-22T13:19:49.333Z,55.13
2024-04-22T13:22:16.135Z,52.82
2024-04-22T13:24:42.866Z,52.21
2024-04-22T13:27:09.424Z,53.44
2024-04-22T13:29:36.373Z,50.18
2024-04-22T13:32:03.112Z,53.83
2024-04-22T13:34:30.181Z,49.90
2024-04-22T13:36:56.932Z,49.27
2024-04-22T13:39:25.213Z,49.05
2024-04-22T13:41:53.947Z,50.16
2024-04-22T13:44:20.761Z,51.36
2024-04-22T13:46:47.722Z,49.97
2024-04-22T13:49:15.463Z,50.19
2024-04-22T13:51:42.503Z,52.18
2024-04-22T13:54:09.358Z,53.55
2024-04-22T13:56:36.236Z,51.90
2024-04-22T13:59:03.946Z,51.57
2024-04-22T14:01:31.152Z,51.62
2024-04-22T14:03:58.267Z,50.98
2024-04-22T14:06:24.936Z,51.95
2024-04-22T14:08:51.611Z,50.09
2024-04-22T14:11:18.694Z,49.79
2024-04-22T14:13:45.492Z,50.73
2024-04-22T14:16:12.163Z,49.35
2024-04-22T14:18:38.756Z,50.60
2024-04-22T14:21:05.605Z,48.13
2024-04-22T14:23:32.240Z,45.46
2024-04-22T14:26:00.414Z,44.66
2024-04-22T14:28:28.475Z,43.20
2024-04-22T14:30:55.706Z,43.38
2024-04-22T14:33:23.775Z,46.98
2024-04-22T14:35:51.152Z,47.47
2024-04-22T14:38:17.820Z,52.52
2024-04-22T14:40:44.566Z,57.64
2024-04-22T14:43:11.267Z,58.85
2024-04-22T14:45:38.350Z,58.83
2024-04-22T14:48:05.433Z,57.75
2024-04-22T14:50:32.076Z,55.16
2024-04-22T14:53:00.464Z,54.67
2024-04-22T14:55:28.498Z,54.00
2024-04-22T14:57:55.072Z,55.45
2024-04-22T15:00:21.735Z,53.77
2024-04-22T15:02:48.450Z,51.01
2024-04-22T15:05:15.220Z,51.14
2024-04-22T15:07:42.211Z,49.77
2024-04-22T15:10:08.811Z,50.05
2024-04-22T15:12:35.898Z,49.24
2024-04-22T15:15:02.535Z,47.62
2024-04-22T15:17:29.172Z,48.24
2024-04-22T15:19:56.362Z,47.96
2024-04-22T15:22:23.106Z,46.30
2024-04-22T15:24:50.452Z,45.08
2024-04-22T15:27:17.279Z,45.18
2024-04-22T15:29:44.086Z,45.54
2024-04-22T15:32:10.733Z,46.99
2024-04-22T15:34:39.477Z,45.20
2024-04-22T15:37:06.567Z,47.53
2024-04-22T15:39:33.372Z,43.67
2024-04-22T15:42:00.185Z,48.84
2024-04-22T15:44:26.758Z,48.20
2024-04-22T15:46:54.188Z,50.34
2024-04-22T15:49:20.917Z,46.47
2024-04-22T15:51:50.442Z,44.39
2024-04-22T15:54:17.119Z,42.93
2024-04-22T15:56:43.715Z,43.10
2024-04-22T15:59:10.339Z,44.70
2024-04-22T16:01:36.999Z,42.12
2024-04-22T16:04:03.955Z,42.96
2024-04-22T16:06:30.629Z,42.96
2024-04-22T16:09:00.346Z,43.78
2024-04-22T16:11:27.007Z,42.56
2024-04-22T16:13:53.680Z,43.04
2024-04-22T16:16:21.090Z,43.33
2024-04-22T16:18:47.808Z,43.38
2024-04-22T16:21:17.618Z,43.36
2024-04-22T16:23:44.461Z,41.74
2024-04-22T16:26:11.456Z,42.55
2024-04-22T16:28:38.412Z,42.29
2024-04-22T16:31:05.073Z,42.10
2024-04-22T16:33:31.696Z,43.81
2024-04-22T16:35:58.241Z,44.17
2024-04-22T16:38:24.976Z,45.81
2024-04-22T16:40:51.550Z,46.71
2024-04-22T16:43:20.937Z,47.56
2024-04-22T16:45:50.181Z,48.53
2024-04-22T16:48:18.729Z,49.83
2024-04-22T16:50:47.663Z,50.34
2024-04-22T16:53:15.669Z,51.29
2024-04-22T16:55:43.121Z,52.90
2024-04-22T16:58:09.978Z,52.50
2024-04-22T17:00:36.588Z,52.89
2024-04-22T17:03:03.255Z,53.00
2024-04-22T17:05:29.812Z,51.94
2024-04-22T17:07:56.490Z,53.59
2024-04-22T17:10:23.169Z,53.69
2024-04-22T17:12:50.457Z,54.01
2024-04-22T17:15:18.022Z,54.22
2024-04-22T17:17:45.173Z,54.92
2024-04-22T17:20:12.190Z,54.78
2024-04-22T17:22:39.449Z,54.55
2024-04-22T17:25:06.527Z,54.78
2024-04-22T17:27:33.171Z,55.19
2024-04-22T17:29:59.860Z,57.05
2024-04-22T17:32:26.768Z,56.30
2024-04-22T17:34:53.538Z,56.61
2024-04-22T17:37:20.848Z,56.93
2024-04-22T17:39:47.743Z,56.26
2024-04-22T17:42:14.494Z,56.27
2024-04-22T17:44:41.462Z,56.29
2024-04-22T17:47:08.256Z,56.97
2024-04-22T17:49:34.993Z,55.90
2024-04-22T17:52:01.714Z,56.60
2024-04-22T17:54:28.566Z,56.21
2024-04-22T17:56:59.957Z,57.12
2024-04-22T17:59:32.141Z,57.95
2024-04-22T18:01:59.127Z,58.42
2024-04-22T18:04:27.027Z,58.84
2024-04-22T18:06:53.819Z,58.75
2024-04-22T18:09:20.482Z,59.75
2024-04-22T18:11:47.161Z,59.81
2024-04-22T18:14:13.728Z,60.31
2024-04-22T18:16:42.903Z,60.65
2024-04-22T18:19:09.650Z,59.33
2024-04-22T18:21:36.240Z,58.06
2024-04-22T18:24:05.967Z,56.94
2024-04-22T18:26:34.331Z,57.30
2024-04-22T18:29:01.596Z,57.02
2024-04-22T18:31:28.399Z,57.24
2024-04-22T18:33:54.987Z,57.14
2024-04-22T18:36:21.609Z,57.19
2024-04-22T18:38:49.002Z,57.54
2024-04-22T18:41:15.721Z,57.54
2024-04-22T18:43:42.886Z,57.51
2024-04-22T18:46:09.595Z,58.17
2024-04-22T18:48:36.384Z,58.26
2024-04-22T18:51:03.220Z,59.36
2024-04-22T18:53:30.124Z,59.13
2024-04-22T18:55:56.908Z,59.85
2024-04-22T18:58:26.199Z,60.88
2024-04-22T19:00:52.949Z,61.22
2024-04-22T19:03:19.818Z,61.81
2024-04-22T19:05:48.617Z,61.70
2024-04-22T19:08:15.239Z,61.81
2024-04-22T19:10:41.871Z,60.92
2024-04-22T19:13:08.503Z,60.89
2024-04-22T19:15:35.099Z,60.85
2024-04-22T19:18:01.851Z,60.15
2024-04-22T19:20:28.534Z,61.03
2024-04-22T19:22:55.204Z,61.18
2024-04-22T19:25:22.114Z,61.37
2024-04-22T19:27:51.193Z,61.10
2024-04-22T19:30:21.091Z,61.49
2024-04-22T19:32:48.076Z,61.92
2024-04-22T19:35:15.839Z,62.45
2024-04-22T19:37:42.727Z,62.89
2024-04-22T19:40:09.379Z,62.53
2024-04-22T19:42:35.941Z,62.50
2024-04-22T19:45:04.007Z,63.42
2024-04-22T19:47:31.129Z,62.90
2024-04-22T19:49:58.003Z,63.86
2024-04-22T19:52:24.945Z,65.15
2024-04-22T19:54:54.566Z,64.39
2024-04-22T19:57:23.059Z,64.02
2024-04-22T19:59:50.244Z,64.59
2024-04-22T20:02:16.856Z,65.11
2024-04-22T20:04:43.632Z,65.72
2024-04-22T20:07:10.303Z,65.85
2024-04-22T20:09:36.882Z,65.88
2024-04-22T20:12:03.636Z,65.29
2024-04-22T20:14:30.252Z,66.36
2024-04-22T20:16:56.812Z,67.37
2024-04-22T20:19:25.628Z,67.07
2024-04-22T20:21:52.365Z,67.87
2024-04-22T20:24:18.965Z,68.82
2024-04-22T20:26:45.531Z,68.75
2024-04-22T20:29:12.092Z,69.05
2024-04-22T20:31:38.765Z,69.15
2024-04-22T20:34:05.736Z,68.02
2024-04-22T20:36:32.382Z,68.44
2024-04-22T20:38:58.981Z,69.35
2024-04-22T20:41:25.546Z,69.99
2024-04-22T20:43:55.247Z,70.70
2024-04-22T20:46:21.936Z,70.69
2024-04-22T20:48:48.565Z,70.77
2024-04-22T20:51:15.163Z,71.78
2024-04-22T20:53:41.783Z,72.42
2024-04-22T20:56:08.384Z,72.20
2024-04-22T20:58:36.606Z,72.03
2024-04-22T21:01:05.149Z,71.43
2024-04-22T21:03:31.967Z,71.41
2024-04-22T21:05:59.768Z,71.28
2024-04-22T21:08:27.014Z,73.95
2024-04-22T21:10:54.348Z,73.12
2024-04-22T21:13:21.085Z,74.00
2024-04-22T21:15:48.112Z,74.23
2024-04-22T21:18:16.695Z,74.47
2024-04-22T21:20:45.368Z,74.02
2024-04-22T21:23:11.928Z,74.27
2024-04-22T21:25:39.115Z,73.99
2024-04-22T21:28:06.189Z,74.71
2024-04-22T21:30:32.724Z,74.00
2024-04-22T21:33:17.782Z,74.85
2024-04-22T21:35:46.150Z,75.93
2024-04-22T21:38:14.521Z,74.93
2024-04-22T21:40:42.314Z,75.95
2024-04-22T21:43:08.878Z,76.69
2024-04-22T21:45:35.525Z,76.48
2024-04-22T21:48:02.097Z,77.06
2024-04-22T21:50:29.706Z,77.62
2024-04-22T21:52:56.737Z,77.46
2024-04-22T21:56:13.653Z,78.70
2024-04-22T21:59:18.324Z,78.76
2024-04-22T22:02:22.890Z,78.33
2024-04-22T22:05:27.030Z,78.35
2024-04-22T22:07:53.677Z,79.53
2024-04-22T22:10:20.459Z,79.30
2024-04-22T22:12:47.211Z,79.12
2024-04-22T22:15:15.128Z,80.60
2024-04-22T22:17:42.084Z,79.79
2024-04-22T22:20:09.069Z,79.65
2024-04-22T22:22:35.658Z,79.76
2024-04-22T22:25:02.978Z,79.32
2024-04-22T22:27:29.672Z,81.24
2024-04-22T22:29:56.389Z,81.60
2024-04-22T22:32:23.072Z,83.30
2024-04-22T22:34:49.971Z,82.92
2024-04-22T22:37:16.731Z,82.75
2024-04-22T22:39:43.614Z,83.96
2024-04-22T22:42:10.693Z,85.46
2024-04-22T22:44:37.236Z,84.51
2024-04-22T22:47:05.239Z,84.52
2024-04-22T22:49:32.120Z,84.18
2024-04-22T22:51:58.669Z,86.98
2024-04-22T22:54:25.716Z,87.29
2024-04-22T22:56:56.766Z,88.60
2024-04-22T22:59:23.304Z,88.15
2024-04-22T23:01:50.886Z,89.21
2024-04-22T23:04:17.629Z,89.06
2024-04-22T23:07:03.806Z,90.57
2024-04-22T23:09:30.443Z,89.92
2024-04-22T23:11:57.292Z,90.71
2024-04-22T23:14:23.819Z,90.77
2024-04-22T23:16:50.598Z,90.89
2024-04-22T23:19:17.526Z,91.05
2024-04-22T23:21:44.203Z,91.51
2024-04-22T23:24:10.864Z,90.27
2024-04-22T23:26:37.395Z,90.18
2024-04-22T23:29:04.038Z,90.61
2024-04-22T23:31:30.669Z,91.35
2024-04-22T23:33:57.261Z,90.52
2024-04-22T23:36:23.813Z,90.93
2024-04-22T23:38:51.127Z,90.08
2024-04-22T23:41:17.753Z,91.27
2024-04-22T23:43:45.294Z,90.54
2024-04-22T23:46:11.954Z,91.53
2024-04-22T23:48:38.518Z,90.12
2024-04-22T23:51:05.228Z,91.84
2024-04-22T23:53:31.817Z,91.83
2024-04-22T23:55:58.456Z,90.98
2024-04-22T23:58:25.113Z,92.57
